createdAt,value
2019-05-11T00:00:15.481Z,13.80
2019-05-11T00:02:42.006Z,13.10
2019-05-11T00:05:08.695Z,14.53
2019-05-11T00:07:35.123Z,13.13
2019-05-11T00:10:04.952Z,13.03
2019-05-11T00:12:31.827Z,11.60
2019-05-11T00:14:58.352Z,12.30
2019-05-11T00:17:24.832Z,13.53
2019-05-11T00:19:51.394Z,12.60
2019-05-11T00:22:17.772Z,12.83
2019-05-11T00:24:44.326Z,22.07
2019-05-11T00:27:10.738Z,14.63
2019-05-11T00:29:37.256Z,14.77
2019-05-11T00:32:03.672Z,16.77
2019-05-11T00:34:30.128Z,15.43
2019-05-11T00:36:56.563Z,14.80
2019-05-11T00:39:23.074Z,14.33
2019-05-11T00:41:49.480Z,15.80
2019-05-11T00:44:15.992Z,16.07
2019-05-11T00:46:42.601Z,15.70
2019-05-11T00:49:09.301Z,18.03
2019-05-11T00:51:35.807Z,18.17
2019-05-11T00:54:02.188Z,19.83
2019-05-11T00:56:28.694Z,16.27
2019-05-11T00:58:55.170Z,18.30
2019-05-11T01:01:22.501Z,14.93
2019-05-11T01:03:49.001Z,16.13
2019-05-11T01:06:15.437Z,15.93
2019-05-11T01:08:41.917Z,15.50
2019-05-11T01:11:08.477Z,15.50
2019-05-11T01:13:34.899Z,16.90
2019-05-11T01:16:01.503Z,16.40
2019-05-11T01:18:27.928Z,17.90
2019-05-11T01:20:54.430Z,16.77
2019-05-11T01:23:20.712Z,16.63
2019-05-11T01:25:47.162Z,16.67
2019-05-11T01:28:13.647Z,19.57
2019-05-11T01:30:40.088Z,18.20
2019-05-11T01:33:06.705Z,19.20
2019-05-11T01:35:33.211Z,17.80
2019-05-11T01:37:59.572Z,17.93
2019-05-11T01:40:26.107Z,18.53
2019-05-11T01:42:52.629Z,17.90
2019-05-11T01:45:19.108Z,18.17
2019-05-11T01:47:45.527Z,18.90
2019-05-11T01:50:12.209Z,19.00
2019-05-11T01:52:38.527Z,18.27
2019-05-11T01:55:05.068Z,17.80
2019-05-11T01:57:31.502Z,18.00
2019-05-11T01:59:58.046Z,17.83
2019-05-11T02:02:24.621Z,16.57
2019-05-11T02:05:09.398Z,17.97
2019-05-11T02:07:35.735Z,18.40
2019-05-11T02:10:04.513Z,17.23
2019-05-11T02:12:31.083Z,19.67
2019-05-11T02:14:57.482Z,18.97
2019-05-11T02:17:24.044Z,18.10
2019-05-11T02:19:50.459Z,19.03
2019-05-11T02:22:16.886Z,19.73
2019-05-11T02:24:43.265Z,19.63
2019-05-11T02:27:09.656Z,17.90
2019-05-11T02:29:36.087Z,18.87
2019-05-11T02:32:02.761Z,19.37
2019-05-11T02:34:31.662Z,18.50
2019-05-11T02:36:58.076Z,18.13
2019-05-11T02:39:24.604Z,18.57
2019-05-11T02:41:51.113Z,18.13
2019-05-11T02:44:17.455Z,18.83
2019-05-11T02:46:43.952Z,17.40
2019-05-11T02:49:10.258Z,19.40
2019-05-11T02:51:38.565Z,18.67
2019-05-11T02:54:05.457Z,18.80
2019-05-11T02:56:31.712Z,19.27
2019-05-11T02:58:58.234Z,21.40
2019-05-11T03:01:24.599Z,21.97
2019-05-11T03:03:50.993Z,20.97
2019-05-11T03:06:17.500Z,20.23
2019-05-11T03:08:44.062Z,22.13
2019-05-11T03:11:10.572Z,22.57
2019-05-11T03:13:37.047Z,21.43
2019-05-11T03:16:03.537Z,24.67
2019-05-11T03:18:30.012Z,24.63
2019-05-11T03:20:56.539Z,23.93
2019-05-11T03:23:23.186Z,23.37
2019-05-11T03:25:49.671Z,25.53
2019-05-11T03:28:16.050Z,26.00
2019-05-11T03:30:42.541Z,25.73
2019-05-11T03:33:08.926Z,24.77
2019-05-11T03:35:35.286Z,25.23
2019-05-11T03:38:01.802Z,25.80
2019-05-11T03:40:28.516Z,27.20
2019-05-11T03:42:55.059Z,23.77
2019-05-11T03:45:21.465Z,25.47
2019-05-11T03:47:47.964Z,25.73
2019-05-11T03:50:14.699Z,26.07
2019-05-11T03:52:41.234Z,27.43
2019-05-11T03:55:08.504Z,26.63
2019-05-11T03:57:35.127Z,28.70
2019-05-11T04:00:02.827Z,25.40
2019-05-11T04:02:29.414Z,28.47
2019-05-11T04:04:55.781Z,27.10
2019-05-11T04:07:22.189Z,25.80
2019-05-11T04:09:48.617Z,25.03
2019-05-11T04:12:33.367Z,24.53
2019-05-11T04:14:43.640Z,25.37
2019-05-11T04:17:10.046Z,25.07
2019-05-11T04:19:36.543Z,26.40
2019-05-11T04:22:03.241Z,26.03
2019-05-11T04:24:29.643Z,27.10
2019-05-11T04:26:56.039Z,28.07
2019-05-11T04:29:22.500Z,27.80
2019-05-11T04:31:49.037Z,28.20
2019-05-11T04:34:15.769Z,28.93
2019-05-11T04:36:42.044Z,27.63
2019-05-11T04:39:08.535Z,26.23
2019-05-11T04:41:35.019Z,28.40
2019-05-11T04:44:01.594Z,27.23
2019-05-11T04:46:28.007Z,29.73
2019-05-11T04:48:54.614Z,29.20
2019-05-11T04:51:21.053Z,28.50
2019-05-11T04:53:47.459Z,28.07
2019-05-11T04:56:13.963Z,27.07
2019-05-11T04:58:40.493Z,28.37
2019-05-11T05:01:07.113Z,27.53
2019-05-11T05:03:40.923Z,31.90
2019-05-11T05:06:20.999Z,28.83
2019-05-11T05:08:32.128Z,28.57
2019-05-11T05:11:00.728Z,30.80
2019-05-11T05:13:29.569Z,29.50
2019-05-11T05:15:55.193Z,30.23
2019-05-11T05:18:21.507Z,29.73
2019-05-11T05:20:47.925Z,29.57
2019-05-11T05:23:14.413Z,30.63
2019-05-11T05:25:40.984Z,31.33
2019-05-11T05:28:07.416Z,31.20
2019-05-11T05:30:33.812Z,31.90
2019-05-11T05:33:00.223Z,31.10
2019-05-11T05:35:26.512Z,32.67
2019-05-11T05:37:52.899Z,33.47
2019-05-11T05:40:19.227Z,34.13
2019-05-11T05:42:45.602Z,32.43
2019-05-11T05:45:12.626Z,34.10
2019-05-11T05:47:39.249Z,34.00
2019-05-11T05:50:06.286Z,35.43
2019-05-11T05:52:32.762Z,36.80
2019-05-11T05:54:59.092Z,35.93
2019-05-11T05:57:25.372Z,35.93
2019-05-11T05:59:51.973Z,36.23
2019-05-11T06:02:18.458Z,38.67
2019-05-11T06:04:44.795Z,40.10
2019-05-11T06:07:11.291Z,39.23
2019-05-11T06:09:37.792Z,40.20
2019-05-11T06:12:04.244Z,39.20
2019-05-11T06:14:30.677Z,38.77
2019-05-11T06:16:57.162Z,38.67
2019-05-11T06:19:23.637Z,39.93
2019-05-11T06:21:50.094Z,42.27
2019-05-11T06:24:16.570Z,42.83
2019-05-11T06:26:42.916Z,42.03
2019-05-11T06:29:09.439Z,42.57
2019-05-11T06:31:35.772Z,41.60
2019-05-11T06:34:02.384Z,44.83
2019-05-11T06:36:28.812Z,42.03
2019-05-11T06:38:55.171Z,42.33
2019-05-11T06:41:21.464Z,42.63
2019-05-11T06:44:00.761Z,41.67
2019-05-11T06:46:16.147Z,42.23
2019-05-11T06:48:42.682Z,45.80
2019-05-11T06:51:09.194Z,43.83
2019-05-11T06:53:35.677Z,43.73
2019-05-11T06:56:02.232Z,45.53
2019-05-11T06:58:28.764Z,43.40
2019-05-11T07:00:55.211Z,45.78
2019-05-11T07:03:21.819Z,43.20
2019-05-11T07:05:48.091Z,43.37
2019-05-11T07:08:14.493Z,43.20
2019-05-11T07:10:41.014Z,43.67
2019-05-11T07:13:07.443Z,42.97
2019-05-11T07:15:33.887Z,41.10
2019-05-11T07:18:00.196Z,42.50
2019-05-11T07:20:26.759Z,42.63
2019-05-11T07:22:53.299Z,44.53
2019-05-11T07:25:19.897Z,45.13
2019-05-11T07:27:46.399Z,45.90
2019-05-11T07:30:13.104Z,48.63
2019-05-11T07:32:39.740Z,52.67
2019-05-11T07:35:08.420Z,60.67
2019-05-11T07:37:35.190Z,59.43
2019-05-11T07:40:01.974Z,56.97
2019-05-11T07:42:28.761Z,57.73
2019-05-11T07:44:55.319Z,53.43
2019-05-11T07:47:21.743Z,50.37
2019-05-11T07:49:48.965Z,52.57
2019-05-11T07:52:18.013Z,54.40
2019-05-11T07:54:44.432Z,49.53
2019-05-11T07:57:10.940Z,54.90
2019-05-11T07:59:38.147Z,51.77
2019-05-11T08:02:04.997Z,43.70
2019-05-11T08:04:31.539Z,44.43
2019-05-11T08:06:58.567Z,45.37
2019-05-11T08:09:27.619Z,43.00
2019-05-11T08:11:53.732Z,40.53
2019-05-11T08:14:20.206Z,38.77
2019-05-11T08:16:48.079Z,38.57
2019-05-11T08:19:14.937Z,36.97
2019-05-11T08:21:41.571Z,35.53
2019-05-11T08:24:09.089Z,35.73
2019-05-11T08:26:35.715Z,31.57
2019-05-11T08:29:02.094Z,30.27
2019-05-11T08:31:28.523Z,32.33
2019-05-11T08:33:55.098Z,30.50
2019-05-11T08:36:21.667Z,28.43
2019-05-11T08:38:48.436Z,29.07
2019-05-11T08:41:15.084Z,33.30
2019-05-11T08:43:41.610Z,31.03
2019-05-11T08:46:08.176Z,29.07
2019-05-11T08:48:38.631Z,31.87
2019-05-11T08:51:04.780Z,26.83
2019-05-11T08:53:31.422Z,27.17
2019-05-11T08:55:58.826Z,29.63
2019-05-11T08:58:27.766Z,25.00
2019-05-11T09:00:54.174Z,23.33
2019-05-11T09:03:20.917Z,27.10
2019-05-11T09:05:48.555Z,24.67
2019-05-11T09:08:15.405Z,22.57
2019-05-11T09:10:42.484Z,26.97
2019-05-11T09:13:08.903Z,24.00
2019-05-11T09:15:38.301Z,25.57
2019-05-11T09:18:04.035Z,21.97
2019-05-11T09:20:30.664Z,20.40
2019-05-11T09:22:58.957Z,20.70
2019-05-11T09:25:27.662Z,21.37
2019-05-11T09:27:53.693Z,21.47
2019-05-11T09:30:20.610Z,22.50
2019-05-11T09:32:47.756Z,26.17
2019-05-11T09:35:14.496Z,23.53
2019-05-11T09:37:40.985Z,20.43
2019-05-11T09:40:08.101Z,25.20
2019-05-11T09:42:34.603Z,21.13
2019-05-11T09:45:01.260Z,23.10
2019-05-11T09:47:28.105Z,22.07
2019-05-11T09:49:54.877Z,19.83
2019-05-11T09:52:21.613Z,22.77
2019-05-11T09:54:48.734Z,20.17
2019-05-11T09:57:15.481Z,19.57
2019-05-11T09:59:42.127Z,19.80
2019-05-11T10:02:08.614Z,21.67
2019-05-11T10:04:35.159Z,20.13
2019-05-11T10:07:01.796Z,19.83
2019-05-11T10:09:28.378Z,21.23
2019-05-11T10:11:55.002Z,20.83
2019-05-11T10:14:21.439Z,19.40
2019-05-11T10:16:49.138Z,21.47
2019-05-11T10:19:17.917Z,22.93
2019-05-11T10:21:44.688Z,17.87
2019-05-11T10:24:11.274Z,20.03
2019-05-11T10:26:38.579Z,19.70
2019-05-11T10:29:07.622Z,19.23
2019-05-11T10:31:34.143Z,17.90
2019-05-11T10:34:01.364Z,22.07
2019-05-11T10:36:28.151Z,18.50
2019-05-11T10:38:54.730Z,20.47
2019-05-11T10:41:21.322Z,18.80
2019-05-11T10:43:48.853Z,19.83
2019-05-11T10:46:22.794Z,20.40
2019-05-11T10:48:44.544Z,23.13
2019-05-11T10:51:11.069Z,20.57
2019-05-11T10:53:38.492Z,20.53
2019-05-11T10:56:05.321Z,21.93
2019-05-11T10:58:31.740Z,21.90
2019-05-11T11:00:58.386Z,21.50
2019-05-11T11:03:24.876Z,19.10
2019-05-11T11:05:51.423Z,21.70
2019-05-11T11:08:18.513Z,25.00
2019-05-11T11:10:45.249Z,22.27
2019-05-11T11:13:11.816Z,21.37
2019-05-11T11:15:38.474Z,20.00
2019-05-11T11:18:05.169Z,18.03
2019-05-11T11:20:31.817Z,20.93
2019-05-11T11:22:58.615Z,20.97
2019-05-11T11:25:25.090Z,19.63
2019-05-11T11:27:51.742Z,19.63
2019-05-11T11:30:18.725Z,17.77
2019-05-11T11:32:45.397Z,15.23
2019-05-11T11:35:12.504Z,17.43
2019-05-11T11:37:39.068Z,16.63
2019-05-11T11:40:08.362Z,17.90
2019-05-11T11:42:35.255Z,18.27
2019-05-11T11:45:08.019Z,13.97
2019-05-11T11:47:34.834Z,16.20
2019-05-11T11:50:01.604Z,17.10
2019-05-11T11:52:28.099Z,18.90
2019-05-11T11:54:54.543Z,21.10
2019-05-11T11:57:21.118Z,19.50
2019-05-11T11:59:48.294Z,24.03
2019-05-11T12:02:14.956Z,28.83
2019-05-11T12:04:41.419Z,29.90
2019-05-11T12:07:08.561Z,26.83
2019-05-11T12:09:37.655Z,28.13
2019-05-11T12:12:03.597Z,28.40
2019-05-11T12:14:29.916Z,29.23
2019-05-11T12:17:04.863Z,21.57
2019-05-11T12:19:25.001Z,24.97
2019-05-11T12:21:51.667Z,20.93
2019-05-11T12:24:18.739Z,17.83
2019-05-11T12:26:47.847Z,17.43
2019-05-11T12:29:13.868Z,12.93
2019-05-11T12:31:40.466Z,12.77
2019-05-11T12:34:08.716Z,14.10
2019-05-11T12:36:35.754Z,14.07
2019-05-11T12:39:08.183Z,7.73
2019-05-11T12:41:34.306Z,10.33
2019-05-11T12:44:01.014Z,13.53
2019-05-11T12:46:27.792Z,7.30
2019-05-11T12:48:56.616Z,9.40
2019-05-11T12:51:22.814Z,8.37
2019-05-11T12:53:49.323Z,10.10
2019-05-11T12:56:18.732Z,10.67
2019-05-11T12:58:44.465Z,8.33
2019-05-11T13:01:11.001Z,8.13
2019-05-11T13:03:38.538Z,10.07
2019-05-11T13:06:07.976Z,7.87
2019-05-11T13:08:33.992Z,8.27
2019-05-11T13:11:00.545Z,10.23
2019-05-11T13:13:28.590Z,8.87
2019-05-11T13:15:55.337Z,8.40
2019-05-11T13:18:21.889Z,9.93
2019-05-11T13:20:48.572Z,9.00
2019-05-11T13:23:15.203Z,8.67
2019-05-11T13:25:41.931Z,13.67
2019-05-11T13:28:08.754Z,8.03
2019-05-11T13:30:35.446Z,8.27
2019-05-11T13:33:01.925Z,10.17
2019-05-11T13:35:28.714Z,10.90
2019-05-11T13:37:55.319Z,12.07
2019-05-11T13:40:22.014Z,12.30
2019-05-11T13:42:49.108Z,9.93
2019-05-11T13:45:17.753Z,11.33
2019-05-11T13:47:52.547Z,9.40
2019-05-11T13:50:13.211Z,13.07
2019-05-11T13:52:39.630Z,14.27
2019-05-11T13:55:07.734Z,8.70
2019-05-11T13:57:37.807Z,8.10
2019-05-11T14:00:08.378Z,11.17
2019-05-11T14:02:37.749Z,9.13
2019-05-11T14:05:08.530Z,10.30
2019-05-11T14:07:34.779Z,10.10
2019-05-11T14:10:01.487Z,9.73
2019-05-11T14:12:28.710Z,8.20
2019-05-11T14:14:57.183Z,11.63
2019-05-11T14:17:24.060Z,8.87
2019-05-11T14:19:50.682Z,9.97
2019-05-11T14:22:17.893Z,12.23
2019-05-11T14:24:44.630Z,9.03
2019-05-11T14:27:11.320Z,6.67
2019-05-11T14:29:38.570Z,10.77
2019-05-11T14:32:05.509Z,9.73
2019-05-11T14:34:32.280Z,6.93
2019-05-11T14:36:58.715Z,8.53
2019-05-11T14:39:27.820Z,7.27
2019-05-11T14:41:53.893Z,9.47
2019-05-11T14:44:20.570Z,5.80
2019-05-11T14:46:47.879Z,8.57
2019-05-11T14:49:14.582Z,7.97
2019-05-11T14:51:42.087Z,9.27
2019-05-11T14:54:08.862Z,9.23
2019-05-11T14:56:37.811Z,7.70
2019-05-11T14:59:04.255Z,8.57
2019-05-11T15:01:31.128Z,8.57
2019-05-11T15:03:58.906Z,9.07
2019-05-11T15:06:27.809Z,8.30
2019-05-11T15:08:54.073Z,7.30
2019-05-11T15:11:20.976Z,8.47
2019-05-11T15:13:48.863Z,13.97
2019-05-11T15:16:15.776Z,8.67
2019-05-11T15:18:42.396Z,10.47
2019-05-11T15:21:09.016Z,9.67
2019-05-11T15:23:37.612Z,10.17
2019-05-11T15:26:07.052Z,8.00
2019-05-11T15:28:32.800Z,10.53
2019-05-11T15:30:59.531Z,11.60
2019-05-11T15:33:27.855Z,11.47
2019-05-11T15:35:54.562Z,9.87
2019-05-11T15:38:21.095Z,11.13
2019-05-11T15:40:48.772Z,12.70
2019-05-11T15:43:17.762Z,10.33
2019-05-11T15:45:43.902Z,8.87
2019-05-11T15:48:10.552Z,11.63
2019-05-11T15:50:39.731Z,9.33
2019-05-11T15:53:05.773Z,9.10
2019-05-11T15:55:32.459Z,9.37
2019-05-11T15:57:58.971Z,8.40
2019-05-11T16:00:25.889Z,9.90
2019-05-11T16:02:52.409Z,11.17
2019-05-11T16:05:19.479Z,14.10
2019-05-11T16:07:46.244Z,6.67
2019-05-11T16:10:13.314Z,10.57
2019-05-11T16:12:40.007Z,10.33
2019-05-11T16:15:08.693Z,9.07
2019-05-11T16:17:40.132Z,14.47
2019-05-11T16:20:09.245Z,9.57
2019-05-11T16:22:38.316Z,14.30
2019-05-11T16:25:08.770Z,11.73
2019-05-11T16:27:37.907Z,9.07
2019-05-11T16:30:08.085Z,12.63
2019-05-11T16:32:34.631Z,10.20
2019-05-11T16:35:01.299Z,15.17
2019-05-11T16:37:28.802Z,10.97
2019-05-11T16:39:55.578Z,10.17
2019-05-11T16:42:22.421Z,9.47
2019-05-11T16:44:48.830Z,10.23
2019-05-11T16:47:15.595Z,9.53
2019-05-11T16:49:42.207Z,10.00
2019-05-11T16:52:10.197Z,12.40
2019-05-11T16:54:38.823Z,10.43
2019-05-11T16:57:05.388Z,10.87
2019-05-11T16:59:32.087Z,10.20
2019-05-11T17:01:58.717Z,12.17
2019-05-11T17:04:28.875Z,14.10
2019-05-11T17:06:54.072Z,12.57
2019-05-11T17:09:20.765Z,15.13
2019-05-11T17:11:48.982Z,10.57
2019-05-11T17:14:15.648Z,15.33
2019-05-11T17:16:42.136Z,10.80
2019-05-11T17:19:08.825Z,10.57
2019-05-11T17:21:37.781Z,10.43
2019-05-11T17:24:03.956Z,8.67
2019-05-11T17:26:30.610Z,7.17
2019-05-11T17:28:58.150Z,5.37
2019-05-11T17:31:25.007Z,6.20
2019-05-11T17:33:51.551Z,5.20
2019-05-11T17:36:18.795Z,4.03
2019-05-11T17:38:47.941Z,7.73
2019-05-11T17:41:14.279Z,5.40
2019-05-11T17:43:40.830Z,5.80
2019-05-11T17:46:08.185Z,10.30
2019-05-11T17:48:34.883Z,6.20
2019-05-11T17:51:01.620Z,4.67
2019-05-11T17:53:28.715Z,6.63
2019-05-11T17:55:57.811Z,5.50
2019-05-11T17:58:23.984Z,6.07
2019-05-11T18:00:50.729Z,5.30
2019-05-11T18:03:17.376Z,6.37
2019-05-11T18:05:44.076Z,3.83
2019-05-11T18:08:10.693Z,7.00
2019-05-11T18:10:38.494Z,4.90
2019-05-11T18:13:05.274Z,5.20
2019-05-11T18:15:31.918Z,3.67
2019-05-11T18:17:58.847Z,4.13
2019-05-11T18:20:25.651Z,2.90
2019-05-11T18:22:52.237Z,6.63
2019-05-11T18:25:18.915Z,6.23
2019-05-11T18:27:48.002Z,5.43
2019-05-11T18:30:14.496Z,5.10
2019-05-11T18:32:41.155Z,6.57
2019-05-11T18:35:08.472Z,7.50
2019-05-11T18:37:35.372Z,4.40
2019-05-11T18:40:04.377Z,4.00
2019-05-11T18:42:30.912Z,7.70
2019-05-11T18:45:00.136Z,6.40
2019-05-11T18:47:26.340Z,4.63
2019-05-11T18:49:52.986Z,5.37
2019-05-11T18:52:19.684Z,6.93
2019-05-11T18:54:47.875Z,6.00
2019-05-11T18:57:14.633Z,5.63
2019-05-11T18:59:41.585Z,6.97
2019-05-11T19:02:08.570Z,4.87
2019-05-11T19:04:35.447Z,6.33
2019-05-11T19:07:15.959Z,4.53
2019-05-11T19:09:30.481Z,6.80
2019-05-11T19:11:57.742Z,6.83
2019-05-11T19:14:24.695Z,5.90
2019-05-11T19:16:51.315Z,6.67
2019-05-11T19:19:18.257Z,4.70
2019-05-11T19:21:45.208Z,6.70
2019-05-11T19:24:11.876Z,6.07
2019-05-11T19:26:38.339Z,7.00
2019-05-11T19:29:05.029Z,6.90
2019-05-11T19:31:31.607Z,5.23
2019-05-11T19:33:58.583Z,4.07
2019-05-11T19:36:27.610Z,6.60
2019-05-11T19:38:53.803Z,7.53
2019-05-11T19:41:20.476Z,6.13
2019-05-11T19:43:48.586Z,8.33
2019-05-11T19:46:15.436Z,6.37
2019-05-11T19:48:42.231Z,4.47
2019-05-11T19:51:11.775Z,5.17
2019-05-11T19:53:38.641Z,9.33
2019-05-11T19:56:07.709Z,11.27
2019-05-11T19:58:34.236Z,7.17
2019-05-11T20:01:00.980Z,9.30
2019-05-11T20:03:28.594Z,6.27
2019-05-11T20:05:57.818Z,7.07
2019-05-11T20:08:23.877Z,8.43
2019-05-11T20:10:50.543Z,7.43
2019-05-11T20:13:18.013Z,8.80
2019-05-11T20:15:44.610Z,9.30
2019-05-11T20:18:11.310Z,6.30
2019-05-11T20:20:37.849Z,7.90
2019-05-11T20:23:04.470Z,6.43
2019-05-11T20:25:30.946Z,5.73
2019-05-11T20:27:58.512Z,6.20
2019-05-11T20:30:25.407Z,8.20
2019-05-11T20:32:52.226Z,7.97
2019-05-11T20:35:18.876Z,7.80
2019-05-11T20:37:45.522Z,8.13
2019-05-11T20:40:12.663Z,5.87
2019-05-11T20:42:39.350Z,6.20
2019-05-11T20:45:07.756Z,8.57
2019-05-11T20:47:34.527Z,7.10
2019-05-11T20:50:01.268Z,7.80
2019-05-11T20:52:28.459Z,5.70
2019-05-11T20:54:55.185Z,7.90
2019-05-11T20:57:21.871Z,7.27
2019-05-11T20:59:48.557Z,4.77
2019-05-11T21:02:15.125Z,5.90
2019-05-11T21:04:41.685Z,5.13
2019-05-11T21:07:08.610Z,6.20
2019-05-11T21:09:35.269Z,6.63
2019-05-11T21:12:03.144Z,6.23
2019-05-11T21:14:29.990Z,6.27
2019-05-11T21:16:58.588Z,6.00
2019-05-11T21:19:25.083Z,6.40
2019-05-11T21:21:53.883Z,4.60
2019-05-11T21:24:20.295Z,7.80
2019-05-11T21:26:47.942Z,3.80
2019-05-11T21:29:14.691Z,5.67
2019-05-11T21:31:41.320Z,7.07
2019-05-11T21:34:08.746Z,7.27
2019-05-11T21:36:37.711Z,7.13
2019-05-11T21:39:08.008Z,4.87
2019-05-11T21:41:34.953Z,5.37
2019-05-11T21:44:01.561Z,6.80
2019-05-11T21:46:28.499Z,4.63
2019-05-11T21:48:55.086Z,6.97
2019-05-11T21:51:21.718Z,7.30
2019-05-11T21:53:48.769Z,4.27
2019-05-11T21:56:15.511Z,6.27
2019-05-11T21:58:42.070Z,6.33
2019-05-11T22:01:08.767Z,10.10
2019-05-11T22:03:35.426Z,4.43
2019-05-11T22:06:02.117Z,6.17
2019-05-11T22:08:28.814Z,5.57
2019-05-11T22:10:55.430Z,6.60
2019-05-11T22:13:22.126Z,6.70
2019-05-11T22:15:48.682Z,6.07
2019-05-11T22:18:29.789Z,7.17
2019-05-11T22:20:43.887Z,6.03
2019-05-11T22:23:10.366Z,3.93
2019-05-11T22:25:38.195Z,5.73
2019-05-11T22:28:05.082Z,8.00
2019-05-11T22:30:31.640Z,4.30
2019-05-11T22:32:58.523Z,6.30
2019-05-11T22:35:25.017Z,6.53
2019-05-11T22:37:51.532Z,5.50
2019-05-11T22:40:18.285Z,4.90
2019-05-11T22:42:44.808Z,5.50
2019-05-11T22:45:11.650Z,4.60
2019-05-11T22:47:39.194Z,5.90
2019-05-11T22:50:09.616Z,4.23
2019-05-11T22:52:39.712Z,7.43
2019-05-11T22:55:11.100Z,6.00
2019-05-11T22:57:34.720Z,4.50
2019-05-11T23:00:08.157Z,6.07
2019-05-11T23:02:34.258Z,4.87
2019-05-11T23:05:00.651Z,4.03
2019-05-11T23:07:28.784Z,6.03
2019-05-11T23:09:57.658Z,4.27
2019-05-11T23:12:23.985Z,4.70
2019-05-11T23:14:52.416Z,8.03
2019-05-11T23:17:18.981Z,3.90
2019-05-11T23:19:45.591Z,5.63
2019-05-11T23:22:12.115Z,5.60
2019-05-11T23:24:38.825Z,7.00
2019-05-11T23:27:07.833Z,6.40
2019-05-11T23:29:33.799Z,6.97
2019-05-11T23:32:00.316Z,4.57
2019-05-11T23:34:28.254Z,9.20
2019-05-11T23:36:55.002Z,6.10
2019-05-11T23:39:21.387Z,6.17
2019-05-11T23:41:48.337Z,5.03
2019-05-11T23:44:14.972Z,6.47
2019-05-11T23:46:41.344Z,3.80
2019-05-11T23:49:08.801Z,4.57
2019-05-11T23:51:35.726Z,4.93
2019-05-11T23:54:02.280Z,3.83
2019-05-11T23:56:28.704Z,5.87
2019-05-11T23:58:57.719Z,6.13
